Time;durP1;ratioP1;P1;durP2;ratioP2;P2;SDS_P1;SDS_P2;PMS_P1;PMS_P2;Temp;Humidity;BMP_temperature;BMP_pressure;BME280_temperature;BME280_humidity;BME280_pressure;Samples;Min_cycle;Max_cycle;Signal;HPM_P1;HPM_P2
2023/03/29 00:01:59;;;;;;;2.53;2.07;;;13.00;56.70;;;;;;6214835;23;20435;-65
2023/03/29 00:04:26;;;;;;;2.10;1.90;;;13.00;57.70;;;;;;6214845;23;20390;-64
2023/03/29 00:06:53;;;;;;;5.00;1.93;;;12.90;57.30;;;;;;6214608;23;20925;-65
2023/03/29 00:09:22;;;;;;;2.10;1.90;;;12.90;57.30;;;;;;6214822;23;20928;-66
2023/03/29 00:11:48;;;;;;;2.90;2.00;;;13.00;58.20;;;;;;6215338;23;20420;-66
2023/03/29 00:14:15;;;;;;;2.10;1.70;;;13.00;57.50;;;;;;6214638;23;20519;-66
2023/03/29 00:16:43;;;;;;;2.87;2.00;;;13.00;56.90;;;;;;6215322;23;20850;-66
2023/03/29 00:19:10;;;;;;;2.70;2.00;;;12.90;56.60;;;;;;6214777;23;20447;-65
2023/03/29 00:21:37;;;;;;;1.97;1.77;;;12.90;56.90;;;;;;6214961;23;20461;-66
2023/03/29 00:24:04;;;;;;;2.33;2.03;;;12.90;56.70;;;;;;6214958;23;20405;-66
2023/03/29 00:26:32;;;;;;;2.33;2.13;;;12.90;56.60;;;;;;6214768;23;20484;-68
2023/03/29 00:28:59;;;;;;;2.53;1.83;;;13.00;56.80;;;;;;6214728;23;20392;-65
2023/03/29 00:31:26;;;;;;;3.23;1.97;;;13.00;56.50;;;;;;6214678;23;20408;-66
2023/03/29 00:33:53;;;;;;;3.37;2.10;;;13.00;56.00;;;;;;6214249;23;20528;-67
2023/03/29 00:36:21;;;;;;;2.17;1.83;;;13.00;56.50;;;;;;6214894;23;20932;-66
2023/03/29 00:38:48;;;;;;;2.37;2.00;;;13.00;56.00;;;;;;6214863;23;20453;-65
2023/03/29 00:41:15;;;;;;;4.03;1.80;;;13.00;56.00;;;;;;6215411;23;20716;-65
2023/03/29 00:43:54;;;;;;;1.90;1.70;;;13.00;55.90;;;;;;6215079;23;20409;-67
2023/03/29 00:46:21;;;;;;;2.00;1.80;;;13.00;55.90;;;;;;6215255;23;20435;-64
2023/03/29 00:48:49;;;;;;;1.73;1.53;;;13.00;56.50;;;;;;6214393;23;20431;-66
2023/03/29 00:51:19;;;;;;;2.53;1.77;;;12.90;55.90;;;;;;6215106;23;20429;-66
2023/03/29 00:53:49;;;;;;;1.83;1.67;;;12.90;56.30;;;;;;6214657;23;20907;-66
2023/03/29 00:56:23;;;;;;;1.93;1.67;;;12.90;56.30;;;;;;6214451;23;20389;-66
2023/03/29 00:58:54;;;;;;;1.70;1.53;;;12.80;56.30;;;;;;6214246;23;20467;-66
2023/03/29 01:01:29;;;;;;;2.03;1.67;;;12.80;56.30;;;;;;6214505;23;20472;-64
2023/03/29 01:04:02;;;;;;;2.90;1.70;;;12.70;56.40;;;;;;6214747;23;20870;-65
2023/03/29 01:06:32;;;;;;;2.07;1.87;;;12.70;56.30;;;;;;6214947;23;20389;-65
2023/03/29 01:09:06;;;;;;;1.70;1.60;;;12.70;56.60;;;;;;6214725;23;20429;-65
2023/03/29 01:11:37;;;;;;;1.53;1.43;;;12.70;56.70;;;;;;6215141;23;20451;-65
2023/03/29 01:14:10;;;;;;;2.97;1.70;;;12.70;56.80;;;;;;6214315;23;20397;-64
2023/03/29 01:16:38;;;;;;;2.07;1.60;;;12.70;56.90;;;;;;6214680;23;20393;-65
2023/03/29 01:19:07;;;;;;;2.30;1.53;;;12.70;56.70;;;;;;6216305;23;20440;-65
2023/03/29 01:21:40;;;;;;;1.90;1.70;;;12.80;56.80;;;;;;6217171;23;20515;-65
2023/03/29 01:24:17;;;;;;;1.80;1.70;;;12.80;56.90;;;;;;6216818;23;20897;-65
2023/03/29 01:26:54;;;;;;;2.53;1.80;;;12.80;56.90;;;;;;6216700;23;20440;-65
2023/03/29 01:29:27;;;;;;;1.80;1.53;;;12.80;57.20;;;;;;6216380;23;20468;-66
2023/03/29 01:31:59;;;;;;;1.60;1.50;;;12.80;57.10;;;;;;6216509;23;20443;-66
2023/03/29 01:34:33;;;;;;;1.70;1.57;;;12.80;57.30;;;;;;6216720;23;20446;-66
2023/03/29 01:37:05;;;;;;;2.30;1.90;;;12.70;57.30;;;;;;6216854;23;20400;-64
2023/03/29 01:39:34;;;;;;;2.60;1.70;;;12.70;57.60;;;;;;6216237;23;20730;-65
2023/03/29 01:42:14;;;;;;;3.37;1.80;;;12.70;57.40;;;;;;6216772;23;20423;-65
2023/03/29 01:44:50;;;;;;;1.70;1.60;;;12.60;57.60;;;;;;6216453;23;20464;-65
2023/03/29 01:47:24;;;;;;;3.07;1.90;;;12.60;57.70;;;;;;6216145;23;20984;-65
2023/03/29 01:49:58;;;;;;;2.90;1.90;;;12.60;57.60;;;;;;6216312;23;20436;-65
2023/03/29 01:52:29;;;;;;;2.43;1.80;;;12.60;57.80;;;;;;6216760;23;20417;-66
2023/03/29 01:55:03;;;;;;;1.80;1.70;;;12.60;57.80;;;;;;6216545;23;20389;-65
2023/03/29 01:57:31;;;;;;;1.80;1.70;;;12.60;57.80;;;;;;6216618;23;20412;-65
2023/03/29 02:00:10;;;;;;;4.87;1.90;;;12.50;57.70;;;;;;6216318;23;20404;-65
2023/03/29 02:02:40;;;;;;;2.27;1.83;;;12.50;58.00;;;;;;6216303;23;20438;-65
2023/03/29 02:05:09;;;;;;;2.23;1.70;;;12.50;57.90;;;;;;6216497;23;20771;-65
2023/03/29 02:07:37;;;;;;;1.67;1.57;;;12.40;58.00;;;;;;6216192;23;20483;-65
2023/03/29 02:10:07;;;;;;;2.03;1.83;;;12.40;58.00;;;;;;6216570;23;20413;-65
2023/03/29 02:12:34;;;;;;;2.90;1.80;;;12.40;58.20;;;;;;6216556;23;20420;-65
2023/03/29 02:15:03;;;;;;;2.33;1.63;;;12.30;58.10;;;;;;6215366;23;20413;-65
2023/03/29 02:17:30;;;;;;;2.00;1.80;;;12.30;58.30;;;;;;6216274;23;20417;-65
2023/03/29 02:20:01;;;;;;;2.80;1.70;;;12.20;58.30;;;;;;6216047;23;20532;-66
2023/03/29 02:22:33;;;;;;;2.77;1.77;;;12.20;58.50;;;;;;6216308;23;20404;-65
2023/03/29 02:25:03;;;;;;;1.90;1.80;;;12.20;58.30;;;;;;6216217;23;20713;-65
2023/03/29 02:27:30;;;;;;;2.40;1.77;;;12.20;58.30;;;;;;6216187;23;20481;-65
2023/03/29 02:29:58;;;;;;;2.50;1.80;;;12.20;58.40;;;;;;6215490;23;20408;-66
2023/03/29 02:32:31;;;;;;;3.13;1.77;;;12.20;58.30;;;;;;6215987;23;20512;-66
2023/03/29 02:35:05;;;;;;;4.37;2.10;;;12.30;58.30;;;;;;6215945;23;20424;-66
2023/03/29 02:37:35;;;;;;;2.07;1.57;;;12.30;58.10;;;;;;6215972;23;20440;-65
2023/03/29 02:40:07;;;;;;;1.87;1.60;;;12.40;58.00;;;;;;6215807;23;20467;-64
2023/03/29 02:42:35;;;;;;;2.33;1.80;;;12.40;58.10;;;;;;6216273;23;20394;-66
2023/03/29 02:45:03;;;;;;;2.07;1.87;;;12.40;58.30;;;;;;6215756;23;20788;-66
2023/03/29 02:47:37;;;;;;;2.33;1.40;;;12.40;58.60;;;;;;6215723;23;20444;-66
2023/03/29 02:50:05;;;;;;;2.57;1.90;;;12.40;58.70;;;;;;6215528;23;20433;-65
2023/03/29 02:52:38;;;;;;;2.00;1.80;;;12.40;58.90;;;;;;6215946;23;20512;-65
2023/03/29 02:55:13;;;;;;;2.57;1.90;;;12.30;58.90;;;;;;6215879;23;20677;-66
2023/03/29 02:57:42;;;;;;;2.13;1.93;;;12.30;58.90;;;;;;6215496;23;20424;-65
2023/03/29 03:00:13;;;;;;;2.83;1.90;;;12.30;58.90;;;;;;6215495;23;20804;-66
2023/03/29 03:02:41;;;;;;;2.43;2.23;;;12.30;59.00;;;;;;6216280;23;20441;-65
2023/03/29 03:05:09;;;;;;;2.37;2.17;;;12.20;58.80;;;;;;6215751;23;20492;-65
2023/03/29 03:07:36;;;;;;;2.10;1.90;;;12.20;59.00;;;;;;6215925;23;20504;-65
2023/03/29 03:10:03;;;;;;;5.33;2.10;;;12.20;59.10;;;;;;6215747;23;20451;-64
2023/03/29 03:12:30;;;;;;;2.27;1.93;;;12.10;59.10;;;;;;6215517;23;20889;-65
2023/03/29 03:14:57;;;;;;;2.07;1.73;;;12.10;59.20;;;;;;6215169;23;20810;-65
2023/03/29 03:17:24;;;;;;;1.93;1.70;;;12.10;59.20;;;;;;6215703;23;20495;-66
2023/03/29 03:19:53;;;;;;;3.27;2.00;;;12.00;59.40;;;;;;6215030;23;20527;-66
2023/03/29 03:22:19;;;;;;;2.00;1.70;;;12.00;59.60;;;;;;6215978;23;20432;-66
2023/03/29 03:24:48;;;;;;;1.70;1.60;;;12.00;59.50;;;;;;6215089;23;20901;-64
2023/03/29 03:27:15;;;;;;;3.67;2.00;;;11.90;59.50;;;;;;6215511;23;20437;-65
2023/03/29 03:29:42;;;;;;;2.30;2.10;;;11.80;59.80;;;;;;6215355;23;20416;-65
2023/03/29 03:32:11;;;;;;;2.73;1.90;;;11.80;60.00;;;;;;6216088;23;20433;-65
2023/03/29 03:34:38;;;;;;;2.63;1.93;;;11.70;60.30;;;;;;6215047;23;20479;-66
2023/03/29 03:37:06;;;;;;;2.90;1.70;;;11.70;60.40;;;;;;6215476;23;20437;-66
2023/03/29 03:39:33;;;;;;;3.20;1.97;;;11.70;60.70;;;;;;6215316;23;20456;-65
2023/03/29 03:42:00;;;;;;;2.17;1.97;;;11.70;60.80;;;;;;6214785;23;20416;-66
2023/03/29 03:44:26;;;;;;;3.00;1.97;;;11.60;61.70;;;;;;6215220;23;20437;-65
2023/03/29 03:46:53;;;;;;;1.80;1.70;;;11.60;61.10;;;;;;6215973;23;20647;-65
2023/03/29 03:49:21;;;;;;;2.70;1.70;;;11.60;61.00;;;;;;6215107;23;20416;-65
2023/03/29 03:51:48;;;;;;;4.17;2.10;;;11.60;61.00;;;;;;6215528;23;20748;-64
2023/03/29 03:54:16;;;;;;;4.03;2.00;;;11.60;61.00;;;;;;6215058;23;20390;-65
2023/03/29 03:56:43;;;;;;;2.00;1.90;;;11.50;61.30;;;;;;6214957;23;20527;-65
2023/03/29 03:59:10;;;;;;;2.10;1.70;;;11.50;62.10;;;;;;6215396;23;20487;-65
2023/03/29 04:01:42;;;;;;;3.47;2.00;;;11.40;61.10;;;;;;6215332;23;20458;-65
2023/03/29 04:04:09;;;;;;;2.17;1.90;;;11.40;61.30;;;;;;6215066;23;20424;-65
2023/03/29 04:06:36;;;;;;;3.90;2.10;;;11.40;61.30;;;;;;6215131;23;20416;-65
2023/03/29 04:09:03;;;;;;;2.17;1.97;;;11.40;61.30;;;;;;6214186;23;20456;-65
2023/03/29 04:11:32;;;;;;;2.87;1.90;;;11.30;61.50;;;;;;6214831;23;20409;-65
2023/03/29 04:13:59;;;;;;;1.80;1.70;;;11.30;61.80;;;;;;6215413;23;20433;-64
2023/03/29 04:16:26;;;;;;;2.77;2.07;;;11.20;61.70;;;;;;6214653;23;20397;-65
2023/03/29 04:18:53;;;;;;;2.43;2.00;;;11.20;62.10;;;;;;6215036;23;20440;-66
2023/03/29 04:21:20;;;;;;;2.63;1.90;;;11.20;62.00;;;;;;6215423;23;20409;-65
2023/03/29 04:23:47;;;;;;;2.27;2.07;;;11.10;61.90;;;;;;6215322;23;20417;-66
2023/03/29 04:26:14;;;;;;;2.13;1.93;;;11.20;62.20;;;;;;6214507;23;20523;-66
2023/03/29 04:28:42;;;;;;;2.40;2.10;;;11.10;62.90;;;;;;6214906;23;20552;-66
2023/03/29 04:31:11;;;;;;;2.03;1.90;;;11.20;62.20;;;;;;6215033;23;20405;-66
2023/03/29 04:33:45;;;;;;;3.47;2.33;;;11.10;62.60;;;;;;6214102;23;20433;-66
2023/03/29 04:36:14;;;;;;;3.37;2.13;;;11.10;62.80;;;;;;6213831;23;20423;-66
2023/03/29 04:38:44;;;;;;;2.23;2.03;;;11.10;62.70;;;;;;6212650;23;20460;-66
2023/03/29 04:41:12;;;;;;;3.50;2.00;;;11.10;62.70;;;;;;6214093;23;20440;-65
2023/03/29 04:43:45;;;;;;;3.80;2.30;;;11.10;63.20;;;;;;6214114;23;20436;-65
2023/03/29 04:46:12;;;;;;;2.73;2.10;;;11.10;63.20;;;;;;6214161;23;20409;-65
2023/03/29 04:48:42;;;;;;;2.57;2.37;;;11.20;63.40;;;;;;6213281;23;20416;-65
2023/03/29 04:51:09;;;;;;;2.90;2.23;;;11.10;63.50;;;;;;6214358;23;20432;-65
2023/03/29 04:53:36;;;;;;;3.37;2.53;;;11.10;64.60;;;;;;6213688;23;20942;-65
2023/03/29 04:56:06;;;;;;;2.93;2.53;;;11.20;63.80;;;;;;6213606;23;20527;-65
2023/03/29 04:58:33;;;;;;;2.30;2.10;;;11.30;63.80;;;;;;6213393;23;20447;-66
2023/03/29 05:01:08;;;;;;;3.60;2.33;;;11.30;64.00;;;;;;6214167;23;20511;-65
2023/03/29 05:03:35;;;;;;;2.47;2.27;;;11.40;64.10;;;;;;6214395;23;20435;-65
2023/03/29 05:06:06;;;;;;;2.73;2.13;;;11.40;64.00;;;;;;6214014;23;20452;-65
2023/03/29 05:08:41;;;;;;;2.43;2.00;;;11.50;64.10;;;;;;6213776;23;20393;-65
2023/03/29 05:11:20;;;;;;;2.37;2.13;;;11.50;63.90;;;;;;6214170;23;20423;-64
2023/03/29 05:13:47;;;;;;;3.23;2.60;;;11.60;64.00;;;;;;6213610;23;20397;-65
2023/03/29 05:16:15;;;;;;;4.27;2.90;;;11.50;64.00;;;;;;6213972;23;20499;-65
2023/03/29 05:18:42;;;;;;;4.47;2.40;;;11.60;63.90;;;;;;6213611;23;20448;-65
2023/03/29 05:21:09;;;;;;;3.87;1.90;;;11.60;64.10;;;;;;6213565;23;20869;-65
2023/03/29 05:23:36;;;;;;;2.90;2.13;;;11.60;64.40;;;;;;6212860;23;20897;-66
2023/03/29 05:26:04;;;;;;;2.37;2.10;;;11.60;64.50;;;;;;6213130;23;20503;-66
2023/03/29 05:28:32;;;;;;;2.60;2.37;;;11.60;64.60;;;;;;6213897;23;20404;-66
2023/03/29 05:31:00;;;;;;;3.87;2.60;;;11.50;64.50;;;;;;6214120;23;20527;-66
2023/03/29 05:33:29;;;;;;;4.50;2.40;;;11.60;64.70;;;;;;6213772;23;20433;-66
2023/03/29 05:36:00;;;;;;;3.60;2.73;;;11.60;64.60;;;;;;6213580;23;20438;-66
2023/03/29 05:38:28;;;;;;;3.07;2.53;;;11.60;64.70;;;;;;6213508;23;20710;-66
2023/03/29 05:40:55;;;;;;;4.67;2.70;;;11.60;64.60;;;;;;6213484;23;20441;-66
2023/03/29 05:43:22;;;;;;;3.27;2.60;;;11.60;64.60;;;;;;6214303;23;20783;-67
2023/03/29 05:45:49;;;;;;;2.47;2.00;;;11.50;64.40;;;;;;6212967;23;20492;-65
2023/03/29 05:48:15;;;;;;;4.03;3.00;;;11.60;64.60;;;;;;6213418;23;20439;-66
2023/03/29 05:50:47;;;;;;;4.67;2.50;;;11.60;64.60;;;;;;6213468;23;20706;-66
2023/03/29 05:53:14;;;;;;;2.97;2.43;;;11.60;64.60;;;;;;6213173;23;20441;-66
2023/03/29 05:55:41;;;;;;;5.13;2.60;;;11.70;64.40;;;;;;6213547;23;20484;-68
2023/03/29 05:58:09;;;;;;;3.03;2.47;;;11.70;64.20;;;;;;6213721;23;20459;-67
2023/03/29 06:00:37;;;;;;;3.00;2.67;;;11.70;64.10;;;;;;6213282;23;20440;-65
2023/03/29 06:03:04;;;;;;;3.13;2.63;;;11.80;63.90;;;;;;6213394;23;20443;-66
2023/03/29 06:05:31;;;;;;;5.00;2.93;;;11.80;63.70;;;;;;6214343;23;20519;-64
2023/03/29 06:07:59;;;;;;;3.67;2.70;;;11.90;63.50;;;;;;6214413;23;20739;-66
2023/03/29 06:10:26;;;;;;;4.30;2.67;;;11.90;63.50;;;;;;6215064;23;20411;-67
2023/03/29 06:12:53;;;;;;;3.93;3.20;;;11.90;63.30;;;;;;6214989;23;20456;-66
2023/03/29 06:15:20;;;;;;;3.07;2.30;;;12.00;63.30;;;;;;6214328;23;20488;-66
2023/03/29 06:18:15;;;;;;;3.63;2.67;;;12.00;63.20;;;;;;6214966;23;20408;-67
2023/03/29 06:20:42;;;;;;;2.90;2.60;;;12.00;63.10;;;;;;6214044;23;20535;-65
2023/03/29 06:23:10;;;;;;;4.70;2.60;;;12.00;62.60;;;;;;6214639;23;20416;-65
2023/03/29 06:25:38;;;;;;;4.10;2.67;;;12.10;62.40;;;;;;6209253;23;20559;-66
2023/03/29 06:28:05;;;;;;;3.30;2.53;;;12.10;62.20;;;;;;6214948;23;20717;-66
2023/03/29 06:30:32;;;;;;;4.80;2.90;;;12.10;62.10;;;;;;6214279;23;20404;-66
2023/03/29 06:32:59;;;;;;;3.30;2.70;;;12.20;62.30;;;;;;6213987;23;20482;-65
2023/03/29 06:35:26;;;;;;;5.37;2.80;;;12.20;62.10;;;;;;6214039;23;20920;-66
2023/03/29 06:37:54;;;;;;;3.60;2.90;;;12.20;62.40;;;;;;6214275;23;20408;-67
2023/03/29 06:40:23;;;;;;;5.07;2.90;;;12.30;62.60;;;;;;6214140;23;20440;-65
2023/03/29 06:42:56;;;;;;;3.33;2.63;;;12.30;62.70;;;;;;6214546;23;20413;-68
2023/03/29 06:45:23;;;;;;;2.90;2.57;;;12.30;62.90;;;;;;6213861;23;20918;-66
2023/03/29 06:47:50;;;;;;;3.23;2.40;;;12.40;62.80;;;;;;6214772;23;20953;-68
2023/03/29 06:50:17;;;;;;;3.23;2.93;;;12.40;62.60;;;;;;6214097;23;20423;-67
2023/03/29 06:52:46;;;;;;;4.13;3.10;;;12.40;62.50;;;;;;6214281;23;20504;-66
2023/03/29 06:55:13;;;;;;;3.87;2.97;;;12.50;62.60;;;;;;6214478;23;20765;-67
2023/03/29 06:57:42;;;;;;;2.77;2.57;;;12.50;62.80;;;;;;6214267;23;20811;-65
2023/03/29 07:00:15;;;;;;;3.10;2.80;;;12.50;63.20;;;;;;6213969;23;20513;-65
2023/03/29 07:02:42;;;;;;;3.73;2.70;;;12.50;63.30;;;;;;6214131;23;20404;-66
2023/03/29 07:05:15;;;;;;;3.30;3.00;;;12.60;63.40;;;;;;6214091;23;20412;-67
2023/03/29 07:07:55;;;;;;;3.70;3.00;;;12.60;63.40;;;;;;6214705;23;20714;-66
2023/03/29 07:10:23;;;;;;;4.57;3.03;;;12.60;63.30;;;;;;6214044;23;20436;-65
2023/03/29 07:12:52;;;;;;;5.23;3.00;;;12.70;63.30;;;;;;6214199;23;20420;-66
2023/03/29 07:15:20;;;;;;;5.40;2.90;;;12.70;63.00;;;;;;6213718;23;20889;-68
2023/03/29 07:17:47;;;;;;;2.93;2.63;;;12.80;63.30;;;;;;6214459;23;20443;-66
2023/03/29 07:20:15;;;;;;;4.87;3.00;;;12.80;63.60;;;;;;6213031;23;20524;-66
2023/03/29 07:22:43;;;;;;;3.97;3.27;;;12.80;63.50;;;;;;6213994;23;20491;-67
2023/03/29 07:25:11;;;;;;;3.10;2.80;;;12.80;63.00;;;;;;6214296;23;20444;-66
2023/03/29 07:27:38;;;;;;;4.93;3.40;;;12.90;63.00;;;;;;6214346;23;20408;-66
2023/03/29 07:30:09;;;;;;;3.83;3.20;;;12.90;62.70;;;;;;6214117;23;20520;-67
2023/03/29 07:32:37;;;;;;;3.47;2.67;;;13.00;62.60;;;;;;6213883;23;20424;-66
2023/03/29 07:35:05;;;;;;;4.30;3.20;;;13.00;62.50;;;;;;6213815;23;20428;-67
2023/03/29 07:37:33;;;;;;;6.77;3.10;;;13.10;62.20;;;;;;6214032;23;20405;-66
2023/03/29 07:40:02;;;;;;;3.23;2.93;;;13.10;62.60;;;;;;6214641;23;20440;-66
2023/03/29 07:42:29;;;;;;;6.73;2.93;;;13.10;61.80;;;;;;6214174;23;20503;-66
2023/03/29 07:44:57;;;;;;;3.77;2.90;;;13.10;61.70;;;;;;6213761;23;20413;-66
2023/03/29 07:47:26;;;;;;;4.07;3.07;;;13.10;61.30;;;;;;6213643;23;20405;-67
2023/03/29 07:50:06;;;;;;;3.37;3.07;;;13.10;61.50;;;;;;6212925;23;20488;-67
2023/03/29 07:52:33;;;;;;;4.60;2.90;;;13.10;61.50;;;;;;6213770;23;20424;-68
2023/03/29 07:55:00;;;;;;;3.53;3.10;;;13.20;61.50;;;;;;6213282;23;20416;-67
2023/03/29 07:57:28;;;;;;;4.50;2.77;;;13.30;61.40;;;;;;6213678;23;20468;-66
2023/03/29 07:59:55;;;;;;;3.47;2.70;;;13.30;61.30;;;;;;6213880;23;20451;-67
2023/03/29 08:02:22;;;;;;;3.20;2.90;;;13.40;61.50;;;;;;6214210;23;20459;-67
2023/03/29 08:04:50;;;;;;;4.60;3.30;;;13.40;61.30;;;;;;6213237;23;20433;-66
2023/03/29 08:07:19;;;;;;;4.27;3.27;;;13.50;60.90;;;;;;6213769;23;20889;-67
2023/03/29 08:09:47;;;;;;;4.27;3.20;;;13.60;60.70;;;;;;6213502;23;20503;-66
2023/03/29 08:12:14;;;;;;;4.17;3.40;;;13.60;60.50;;;;;;6213463;23;20444;-67
2023/03/29 08:14:41;;;;;;;6.10;3.10;;;13.60;60.80;;;;;;6213262;23;20448;-68
2023/03/29 08:17:08;;;;;;;4.33;2.73;;;13.60;60.80;;;;;;6213146;23;20415;-68
2023/03/29 08:19:35;;;;;;;4.20;3.10;;;13.70;60.80;;;;;;6213712;23;20843;-68
2023/03/29 08:22:03;;;;;;;3.83;3.47;;;13.70;60.50;;;;;;6213908;23;20451;-66
2023/03/29 08:24:30;;;;;;;5.23;3.13;;;13.80;60.00;;;;;;6213181;23;20413;-66
2023/03/29 08:26:57;;;;;;;4.70;3.37;;;13.90;60.00;;;;;;6213505;23;20478;-67
2023/03/29 08:29:24;;;;;;;3.37;3.07;;;13.90;59.60;;;;;;6213521;23;20707;-66
2023/03/29 08:31:51;;;;;;;5.70;3.40;;;13.90;59.30;;;;;;6212959;23;20502;-67
2023/03/29 08:34:18;;;;;;;4.83;3.47;;;14.00;58.80;;;;;;6213698;23;20460;-67
2023/03/29 08:36:46;;;;;;;4.17;3.30;;;14.00;58.40;;;;;;6213697;23;20412;-66
2023/03/29 08:39:14;;;;;;;4.87;3.40;;;14.10;58.60;;;;;;6213376;23;20879;-67
2023/03/29 08:41:55;;;;;;;4.80;3.23;;;14.10;58.20;;;;;;6213644;23;20532;-66
2023/03/29 08:44:41;;;;;;;4.60;3.60;;;14.20;58.20;;;;;;6213491;23;20511;-64
2023/03/29 08:47:15;;;;;;;4.27;2.90;;;14.30;58.20;;;;;;6212824;23;20954;-65
2023/03/29 08:49:45;;;;;;;3.90;3.10;;;14.30;57.60;;;;;;6213216;23;20389;-65
2023/03/29 08:52:20;;;;;;;4.37;3.30;;;14.40;57.80;;;;;;6213513;23;20444;-64
2023/03/29 08:54:53;;;;;;;3.57;2.80;;;14.50;57.90;;;;;;6213004;23;20420;-66
2023/03/29 08:57:24;;;;;;;4.73;3.40;;;14.60;57.50;;;;;;6213366;23;20397;-65
2023/03/29 08:59:53;;;;;;;5.03;3.23;;;14.60;57.30;;;;;;6213031;23;20424;-66
2023/03/29 09:02:23;;;;;;;4.17;3.10;;;14.70;57.30;;;;;;6213154;23;20496;-68
2023/03/29 09:04:52;;;;;;;4.43;3.00;;;14.80;57.40;;;;;;6212631;23;20512;-66
2023/03/29 09:07:19;;;;;;;5.17;3.07;;;14.90;57.50;;;;;;6213375;23;20491;-67
2023/03/29 09:09:48;;;;;;;4.20;3.20;;;15.00;55.90;;;;;;6213146;23;20938;-66
2023/03/29 09:12:24;;;;;;;5.20;2.73;;;15.00;55.50;;;;;;6212628;23;20517;-65
2023/03/29 09:15:00;;;;;;;4.93;3.37;;;15.10;55.50;;;;;;6212973;23;20416;-66
2023/03/29 09:17:38;;;;;;;4.27;3.30;;;15.20;54.80;;;;;;6212693;23;20397;-66
2023/03/29 09:20:19;;;;;;;4.97;3.20;;;15.30;55.10;;;;;;6212948;23;20465;-66
2023/03/29 09:22:56;;;;;;;3.87;2.87;;;15.40;54.60;;;;;;6213362;23;20472;-65
2023/03/29 09:25:31;;;;;;;3.20;2.70;;;15.50;53.40;;;;;;6212717;23;20435;-65
2023/03/29 09:28:03;;;;;;;3.40;2.80;;;15.60;53.50;;;;;;6213378;23;20428;-67
2023/03/29 09:30:34;;;;;;;3.43;2.80;;;15.60;53.30;;;;;;6212204;23;20439;-66
2023/03/29 09:33:09;;;;;;;4.13;2.87;;;15.70;53.20;;;;;;6213094;23;20495;-66
2023/03/29 09:35:40;;;;;;;5.63;2.80;;;15.80;53.10;;;;;;6213029;23;20516;-66
2023/03/29 09:38:11;;;;;;;3.50;2.70;;;15.90;52.50;;;;;;6213197;23;20519;-65
2023/03/29 09:40:45;;;;;;;3.00;2.70;;;16.00;52.10;;;;;;6215345;23;20511;-66
2023/03/29 09:43:17;;;;;;;3.80;2.50;;;16.10;52.30;;;;;;6214963;23;20961;-66
2023/03/29 09:45:51;;;;;;;3.47;2.50;;;16.20;51.80;;;;;;6215174;23;20440;-66
2023/03/29 09:48:19;;;;;;;4.20;2.90;;;16.30;51.40;;;;;;6214879;23;20399;-66
2023/03/29 09:50:50;;;;;;;4.13;2.97;;;16.40;51.80;;;;;;6213612;23;20392;-66
2023/03/29 09:53:18;;;;;;;3.33;2.70;;;16.50;51.20;;;;;;6214360;23;20812;-66
2023/03/29 09:55:49;;;;;;;2.80;2.47;;;16.60;51.10;;;;;;6214672;23;20432;-66
2023/03/29 09:58:18;;;;;;;2.60;2.40;;;16.70;49.80;;;;;;6214971;23;20459;-67
2023/03/29 10:00:47;;;;;;;3.53;2.47;;;16.80;50.30;;;;;;6214454;23;20456;-66
2023/03/29 10:03:19;;;;;;;3.27;2.50;;;16.80;49.60;;;;;;6214776;23;20926;-66
2023/03/29 10:05:50;;;;;;;3.60;2.67;;;16.90;49.20;;;;;;6214543;23;20912;-66
2023/03/29 10:08:21;;;;;;;5.93;2.63;;;16.90;48.90;;;;;;6214472;23;20451;-66
2023/03/29 10:10:49;;;;;;;3.67;2.17;;;17.00;48.80;;;;;;6214599;23;20400;-66
2023/03/29 10:13:22;;;;;;;5.27;2.40;;;17.10;49.40;;;;;;6214361;23;20462;-66
2023/03/29 10:16:02;;;;;;;2.40;2.20;;;17.20;49.00;;;;;;6214723;23;20405;-66
2023/03/29 10:18:30;;;;;;;3.10;2.03;;;17.20;48.10;;;;;;6214663;23;20869;-65
2023/03/29 10:20:59;;;;;;;2.50;2.30;;;17.40;48.80;;;;;;6214488;23;20963;-65
2023/03/29 10:23:31;;;;;;;3.83;2.80;;;17.50;48.70;;;;;;6214607;23;20940;-67
2023/03/29 10:26:00;;;;;;;3.67;2.50;;;17.70;48.00;;;;;;6214964;23;20441;-67
2023/03/29 10:28:29;;;;;;;5.07;4.27;;;17.70;48.00;;;;;;6214192;23;20415;-67
2023/03/29 10:30:59;;;;;;;6.37;4.83;;;17.90;47.00;;;;;;6215061;23;20479;-67
2023/03/29 10:33:31;;;;;;;6.13;5.00;;;17.90;46.80;;;;;;6214469;23;20411;-67
2023/03/29 10:35:58;;;;;;;5.87;2.70;;;18.00;46.90;;;;;;6214040;23;20440;-66
2023/03/29 10:38:28;;;;;;;4.53;2.40;;;18.20;47.30;;;;;;6214296;23;20264;-66
2023/03/29 10:41:03;;;;;;;5.83;5.17;;;18.40;47.40;;;;;;6214539;23;20204;-66
2023/03/29 10:43:38;;;;;;;4.00;2.60;;;18.60;46.60;;;;;;6214051;23;20472;-66
2023/03/29 10:46:11;;;;;;;6.27;2.10;;;18.70;46.70;;;;;;6214488;23;20749;-66
2023/03/29 10:48:40;;;;;;;3.23;2.30;;;18.90;46.90;;;;;;6214070;23;20197;-66
2023/03/29 10:51:07;;;;;;;2.30;1.97;;;19.10;46.40;;;;;;6213833;23;20429;-65
2023/03/29 10:53:36;;;;;;;3.27;2.13;;;19.20;45.80;;;;;;6214331;23;20217;-67
2023/03/29 10:56:17;;;;;;;3.30;1.93;;;19.30;45.10;;;;;;6213745;23;20228;-66
2023/03/29 10:59:07;;;;;;;2.57;2.00;;;19.30;44.40;;;;;;6214297;23;20162;-66
2023/03/29 11:01:44;;;;;;;2.33;1.97;;;19.40;44.80;;;;;;6214074;23;20656;-66
2023/03/29 11:04:22;;;;;;;5.00;2.00;;;19.60;44.50;;;;;;6214293;23;20523;-66
2023/03/29 11:07:02;;;;;;;2.73;1.93;;;19.70;44.70;;;;;;6213760;23;20216;-65
2023/03/29 11:09:42;;;;;;;2.60;2.40;;;19.70;44.10;;;;;;6213765;23;20240;-66
2023/03/29 11:12:18;;;;;;;2.13;1.93;;;19.80;43.90;;;;;;6214015;23;20158;-66
2023/03/29 11:15:00;;;;;;;2.23;1.90;;;19.90;43.30;;;;;;6214257;23;20163;-66
2023/03/29 11:17:36;;;;;;;2.77;2.37;;;20.00;43.80;;;;;;6214343;23;20745;-66
2023/03/29 11:20:27;;;;;;;6.33;4.63;;;20.10;42.60;;;;;;6214417;23;20200;-67
2023/03/29 11:23:04;;;;;;;2.10;1.90;;;19.90;42.40;;;;;;6214265;23;20204;-66
2023/03/29 11:25:42;;;;;;;3.93;2.67;;;19.90;43.60;;;;;;6213961;23;20174;-66
2023/03/29 11:28:17;;;;;;;5.37;4.40;;;20.00;42.50;;;;;;6213844;23;20672;-67
2023/03/29 11:31:01;;;;;;;2.77;2.30;;;19.80;42.30;;;;;;6213695;23;20158;-66
2023/03/29 11:33:39;;;;;;;3.30;2.40;;;19.90;43.40;;;;;;6214237;23;20534;-66
2023/03/29 11:36:13;;;;;;;1.87;1.60;;;19.90;42.60;;;;;;6213638;23;20222;-65
2023/03/29 11:38:50;;;;;;;2.33;1.87;;;19.90;43.00;;;;;;6214223;23;20245;-66
2023/03/29 11:41:20;;;;;;;3.10;2.20;;;19.90;42.70;;;;;;6213223;23;20461;-66
2023/03/29 11:43:51;;;;;;;2.30;1.80;;;19.80;43.20;;;;;;6214332;23;20248;-66
2023/03/29 11:46:23;;;;;;;4.90;4.13;;;19.80;43.40;;;;;;6213616;23;20166;-66
2023/03/29 11:48:56;;;;;;;3.97;2.47;;;19.70;42.70;;;;;;6213865;23;20163;-66
2023/03/29 11:51:25;;;;;;;6.93;4.73;;;19.50;42.70;;;;;;6213270;23;20166;-65
2023/03/29 11:54:02;;;;;;;2.37;2.00;;;19.40;42.90;;;;;;6214064;23;20202;-66
2023/03/29 11:56:34;;;;;;;4.93;2.23;;;19.40;43.30;;;;;;6213432;23;20162;-67
2023/03/29 11:59:10;;;;;;;5.10;4.17;;;19.50;43.60;;;;;;6213325;23;20192;-65
2023/03/29 12:01:42;;;;;;;7.70;6.43;;;19.70;42.60;;;;;;6213231;23;20221;-67
2023/03/29 12:04:14;;;;;;;6.33;3.77;;;19.70;43.00;;;;;;6214046;23;20237;-65
2023/03/29 12:06:48;;;;;;;4.73;3.73;;;19.80;42.10;;;;;;6213891;23;20208;-67
2023/03/29 12:09:33;;;;;;;3.67;2.13;;;19.80;42.50;;;;;;6213306;23;20162;-65
2023/03/29 12:12:08;;;;;;;7.73;5.13;;;19.90;42.50;;;;;;6213220;23;20237;-64
2023/03/29 12:14:47;;;;;;;5.50;4.10;;;19.90;41.50;;;;;;6213447;23;20185;-67
2023/03/29 12:17:19;;;;;;;3.33;2.53;;;19.80;42.00;;;;;;6212372;23;20182;-65
2023/03/29 12:20:01;;;;;;;4.53;4.00;;;19.70;41.90;;;;;;6213186;23;20166;-67
2023/03/29 12:22:28;;;;;;;3.43;2.60;;;19.70;42.10;;;;;;6212853;23;20216;-67
2023/03/29 12:24:56;;;;;;;2.93;2.00;;;19.70;42.30;;;;;;6212997;23;20205;-66
2023/03/29 12:27:27;;;;;;;4.63;3.30;;;19.70;42.40;;;;;;6213587;23;20181;-67
2023/03/29 12:30:27;;;;;;;3.80;2.00;;;19.50;42.90;;;;;;6213037;23;20165;-66
2023/03/29 12:33:17;;;;;;;3.40;2.60;;;19.60;43.20;;;;;;6212872;23;20158;-67
2023/03/29 12:35:52;;;;;;;6.93;4.63;;;19.80;43.60;;;;;;6206304;23;20572;-67
2023/03/29 12:38:21;;;;;;;3.17;2.57;;;19.90;43.20;;;;;;6213260;23;20188;-67
2023/03/29 12:40:55;;;;;;;4.67;2.20;;;20.00;43.20;;;;;;6213342;23;20227;-67
2023/03/29 12:43:26;;;;;;;4.17;3.10;;;19.90;42.70;;;;;;6213396;23;20213;-67
2023/03/29 12:45:55;;;;;;;4.50;3.30;;;19.80;43.70;;;;;;6213081;23;20595;-67
2023/03/29 12:48:26;;;;;;;3.83;2.93;;;19.80;43.80;;;;;;6213725;23;20182;-67
2023/03/29 12:50:59;;;;;;;2.80;2.40;;;19.80;44.00;;;;;;6213336;23;20226;-66
2023/03/29 12:53:31;;;;;;;5.00;3.97;;;19.70;44.80;;;;;;6212939;23;20533;-66
2023/03/29 12:56:11;;;;;;;2.70;2.20;;;19.60;44.50;;;;;;6212607;23;20206;-66
2023/03/29 12:58:54;;;;;;;3.27;2.20;;;19.80;45.10;;;;;;6213655;23;20170;-66
2023/03/29 13:01:25;;;;;;;5.23;4.27;;;19.90;44.40;;;;;;6213151;23;20546;-67
2023/03/29 13:03:57;;;;;;;5.63;4.03;;;19.70;44.60;;;;;;6213391;23;20249;-67
2023/03/29 13:06:30;;;;;;;6.10;5.27;;;19.70;44.60;;;;;;6212768;23;20173;-65